createdAt,value
2022-12-13T00:02:55.725Z,99999.44
2022-12-13T00:07:56.893Z,100004.34
2022-12-13T00:12:58.058Z,100003.19
2022-12-13T00:17:59.246Z,99995.34
2022-12-13T00:23:00.407Z,99986.28
2022-12-13T00:28:01.556Z,99990.22
2022-12-13T00:33:02.783Z,99998.38
2022-12-13T00:38:03.961Z,99989.16
2022-12-13T00:43:05.206Z,99990.75
2022-12-13T00:48:06.372Z,99990.00
2022-12-13T00:53:07.490Z,99997.56
2022-12-13T00:58:08.644Z,99993.44
2022-12-13T01:03:20.224Z,100002.34
2022-12-13T01:08:21.541Z,100002.34
2022-12-13T01:13:22.780Z,99996.03
2022-12-13T01:18:23.953Z,99988.56
2022-12-13T01:23:25.125Z,99990.75
2022-12-13T01:28:26.290Z,99998.06
2022-12-13T01:33:27.492Z,100004.41
2022-12-13T01:38:28.634Z,100000.44
2022-12-13T01:43:29.784Z,100005.56
2022-12-13T01:48:30.961Z,100008.09
2022-12-13T01:53:32.115Z,100001.16
2022-12-13T01:58:33.319Z,100009.25
2022-12-13T02:03:34.459Z,100001.97
2022-12-13T02:08:36.156Z,100002.78
2022-12-13T02:13:37.575Z,100010.69
2022-12-13T02:18:38.704Z,100006.16
2022-12-13T02:23:40.014Z,100001.19
2022-12-13T02:28:41.229Z,99992.13
2022-12-13T02:33:42.365Z,100001.03
2022-12-13T02:38:44.716Z,99999.88
2022-12-13T02:43:45.972Z,99997.72
2022-12-13T02:48:47.103Z,99999.31
2022-12-13T02:53:48.313Z,100007.59
2022-12-13T02:58:49.514Z,100001.25
2022-12-13T03:03:50.750Z,100001.06
2022-12-13T03:08:51.935Z,99991.00
2022-12-13T03:13:53.107Z,99986.28
2022-12-13T03:18:54.361Z,99989.44
2022-12-13T03:23:55.522Z,99985.88
2022-12-13T03:28:56.769Z,99982.34
2022-12-13T03:33:57.987Z,99977.22
2022-12-13T03:38:59.120Z,99982.34
2022-12-13T03:44:00.330Z,99981.38
2022-12-13T03:49:01.663Z,99969.75
2022-12-13T03:54:02.794Z,99981.97
2022-12-13T03:59:04.040Z,99975.69
2022-12-13T04:04:05.239Z,99978.84
2022-12-13T04:09:06.415Z,99982.38
2022-12-13T04:14:07.588Z,99987.09
2022-12-13T04:19:08.893Z,99992.03
2022-12-13T04:24:10.100Z,99983.19
2022-12-13T04:29:11.259Z,99980.44
2022-12-13T04:34:12.482Z,99976.09
2022-12-13T04:39:22.642Z,99974.72
2022-12-13T04:44:27.313Z,99967.03
2022-12-13T04:49:30.991Z,99967.81
2022-12-13T04:54:35.680Z,99970.75
2022-12-13T04:59:38.243Z,99970.38
2022-12-13T05:04:39.421Z,99963.28
2022-12-13T05:09:40.653Z,99954.03
2022-12-13T05:14:41.778Z,99951.47
2022-12-13T05:19:42.936Z,99948.09
2022-12-13T05:24:44.771Z,99949.88
2022-12-13T05:29:45.943Z,99959.53
2022-12-13T05:34:47.169Z,99956.75
2022-12-13T05:39:48.453Z,99961.88
2022-12-13T05:44:49.614Z,99954.97
2022-12-13T05:49:51.742Z,99949.47
2022-12-13T05:54:52.906Z,99946.53
2022-12-13T05:59:54.039Z,99958.75
2022-12-13T06:04:55.308Z,99954.78
2022-12-13T06:10:10.448Z,99945.75
2022-12-13T06:15:21.767Z,99946.91
2022-12-13T06:20:24.805Z,99945.34
2022-12-13T06:25:30.726Z,99954.38
2022-12-13T06:30:33.280Z,99952.59
2022-12-13T06:35:39.602Z,99950.03
2022-12-13T06:40:42.580Z,99944.94
2022-12-13T06:45:43.769Z,99951.00
2022-12-13T06:50:44.951Z,99952.16
2022-12-13T06:55:46.931Z,99959.63
2022-12-13T07:00:49.525Z,99958.63
2022-12-13T07:05:55.204Z,99958.03
2022-12-13T07:10:59.456Z,99959.41
2022-12-13T07:16:01.028Z,99956.47
2022-12-13T07:21:02.556Z,99955.50
2022-12-13T07:26:03.713Z,99960.81
2022-12-13T07:31:04.995Z,99957.84
2022-12-13T07:36:06.996Z,99958.81
2022-12-13T07:41:08.249Z,99965.16
2022-12-13T07:46:09.467Z,99955.88
2022-12-13T07:51:11.682Z,99959.81
2022-12-13T07:56:12.870Z,99949.44
2022-12-13T08:01:14.901Z,99956.56
2022-12-13T08:06:16.087Z,99967.38
2022-12-13T08:11:17.405Z,99960.47
2022-12-13T08:16:28.158Z,99959.91
2022-12-13T08:21:53.409Z,99961.13
2022-12-13T08:26:51.227Z,99966.22
2022-12-13T08:31:52.449Z,99961.91
2022-12-13T08:36:53.705Z,99964.88
2022-12-13T08:42:15.770Z,99966.63
2022-12-13T08:47:23.500Z,99958.94
2022-12-13T08:52:25.244Z,99960.31
2022-12-13T08:57:26.426Z,99964.22
2022-12-13T09:02:27.615Z,99959.41
2022-12-13T09:07:28.851Z,99966.28
2022-12-13T09:12:31.171Z,99970.09
2022-12-13T09:17:37.076Z,99965.31
2022-12-13T09:22:39.196Z,99965.84
2022-12-13T09:27:46.578Z,99963.00
2022-12-13T09:32:50.014Z,99958.88
2022-12-13T09:37:51.179Z,99968.59
2022-12-13T09:43:08.325Z,99968.84
2022-12-13T09:48:13.765Z,99962.16
2022-12-13T09:53:21.621Z,99953.34
2022-12-13T09:58:23.536Z,99962.47
2022-12-13T10:03:25.292Z,99967.69
2022-12-13T10:08:26.617Z,99950.38
2022-12-13T10:13:27.966Z,99950.31
2022-12-13T10:18:29.090Z,99940.25
2022-12-13T10:23:42.784Z,99931.03
2022-12-13T10:28:51.463Z,99921.19
2022-12-13T10:33:52.641Z,99906.78
2022-12-13T10:38:53.814Z,99902.41
2022-12-13T10:43:55.006Z,99900.31
2022-12-13T10:48:56.222Z,99883.94
2022-12-13T10:53:57.580Z,99890.13
2022-12-13T10:58:58.706Z,99867.56
2022-12-13T11:04:02.240Z,99831.56
2022-12-13T11:09:03.919Z,99847.50
2022-12-13T11:14:05.141Z,99843.19
2022-12-13T11:19:06.319Z,99843.66
2022-12-13T11:24:07.575Z,99840.25
2022-12-13T11:29:09.074Z,99836.22
2022-12-13T11:34:10.260Z,99816.63
2022-12-13T11:39:11.513Z,99815.81
2022-12-13T11:44:12.705Z,99813.75
2022-12-13T11:49:14.255Z,99814.44
2022-12-13T11:54:23.983Z,99810.63
2022-12-13T11:59:27.239Z,99803.47
2022-12-13T12:04:28.848Z,99810.88
2022-12-13T12:09:30.119Z,99806.84
2022-12-13T12:14:31.271Z,99809.91
2022-12-13T12:19:32.451Z,99803.16
2022-12-13T12:24:33.622Z,99807.84
2022-12-13T12:29:35.001Z,99805.44
2022-12-13T12:34:36.204Z,99793.53
2022-12-13T12:39:37.360Z,99794.03
2022-12-13T12:44:38.563Z,99786.91
2022-12-13T12:49:40.235Z,99780.56
2022-12-13T12:54:41.419Z,99772.66
2022-12-13T12:59:42.641Z,99770.00
2022-12-13T13:04:43.838Z,99754.50
2022-12-13T13:09:44.962Z,99758.63
2022-12-13T13:14:46.135Z,99755.97
2022-12-13T13:19:47.296Z,99759.50
2022-12-13T13:24:48.469Z,99748.63
2022-12-13T13:29:49.769Z,99760.59
2022-12-13T13:34:51.018Z,99768.94
2022-12-13T13:39:52.214Z,99757.16
2022-12-13T13:44:53.547Z,99758.78
2022-12-13T13:49:58.505Z,99745.00
2022-12-13T13:55:02.899Z,99748.78
2022-12-13T14:00:04.115Z,99759.78
2022-12-13T14:05:05.347Z,99761.22
2022-12-13T14:10:06.628Z,99755.09
2022-12-13T14:15:07.841Z,99762.47
2022-12-13T14:20:09.319Z,99753.66
2022-12-13T14:25:10.571Z,99747.53
2022-12-13T14:30:27.116Z,99742.00
2022-12-13T14:35:29.994Z,99736.66
2022-12-13T14:40:31.184Z,99738.41
2022-12-13T14:45:32.362Z,99733.09
2022-12-13T14:50:33.593Z,99730.13
2022-12-13T14:55:36.297Z,99731.50
2022-12-13T15:00:38.337Z,99736.56
2022-12-13T15:05:39.520Z,99720.69
2022-12-13T15:10:40.693Z,99715.38
2022-12-13T15:15:41.828Z,99710.03
2022-12-13T15:20:43.043Z,99697.97
2022-12-13T15:25:44.282Z,99690.28
2022-12-13T15:30:45.434Z,99687.28
2022-12-13T15:35:47.939Z,99693.50
2022-12-13T15:40:49.417Z,99682.53
2022-12-13T15:45:50.629Z,99680.09
2022-12-13T15:50:51.812Z,99678.44
2022-12-13T15:55:53.010Z,99682.03
2022-12-13T16:00:54.263Z,99683.50
2022-12-13T16:05:55.447Z,99668.97
2022-12-13T16:10:56.638Z,99661.91
2022-12-13T16:15:59.933Z,99653.84
2022-12-13T16:21:10.608Z,99644.00
2022-12-13T16:26:11.834Z,99629.13
2022-12-13T16:31:13.090Z,99638.31
2022-12-13T16:36:14.377Z,99632.41
2022-12-13T16:41:16.279Z,99629.25
2022-12-13T16:47:12.188Z,99627.69
2022-12-13T16:51:42.504Z,99636.41
2022-12-13T16:56:47.846Z,99633.75
2022-12-13T17:01:50.256Z,99636.22
2022-12-13T17:06:54.821Z,99639.34
2022-12-13T17:11:56.390Z,99634.19
2022-12-13T17:16:57.688Z,99642.94
2022-12-13T17:21:58.971Z,99646.53
2022-12-13T17:27:00.201Z,99634.91
2022-12-13T17:32:01.466Z,99632.31
2022-12-13T17:37:08.568Z,99636.66
2022-12-13T17:42:11.533Z,99621.00
2022-12-13T17:47:13.177Z,99620.34
2022-12-13T17:52:14.414Z,99616.78
2022-12-13T17:57:15.590Z,99615.66
2022-12-13T18:02:22.618Z,99628.75
2022-12-13T18:07:23.811Z,99610.94
2022-12-13T18:12:25.081Z,99616.91
2022-12-13T18:17:46.723Z,99634.91
2022-12-13T18:22:51.336Z,99635.03
2022-12-13T18:27:58.992Z,99628.84
2022-12-13T18:33:01.929Z,99623.94
2022-12-13T18:38:03.099Z,99610.50
2022-12-13T18:43:04.289Z,99603.91
2022-12-13T18:48:05.497Z,99601.78
2022-12-13T18:53:06.697Z,99598.09
2022-12-13T18:58:07.864Z,99596.66
2022-12-13T19:03:09.307Z,99591.94
2022-12-13T19:08:10.530Z,99590.03
2022-12-13T19:13:11.734Z,99596.00
2022-12-13T19:18:12.971Z,99583.03
2022-12-13T19:23:14.219Z,99584.03
2022-12-13T19:28:15.472Z,99577.31
2022-12-13T19:33:17.288Z,99573.63
2022-12-13T19:38:18.466Z,99571.94
2022-12-13T19:43:21.269Z,99562.09
2022-12-13T19:48:22.554Z,99548.69
2022-12-13T19:53:23.850Z,99544.44
2022-12-13T19:58:25.232Z,99540.28
2022-12-13T20:03:26.667Z,99533.03
2022-12-13T20:08:28.181Z,99516.59
2022-12-13T20:13:29.718Z,99516.25
2022-12-13T20:18:31.246Z,99515.94
2022-12-13T20:23:32.751Z,99511.91
2022-12-13T20:28:33.907Z,99512.03
2022-12-13T20:33:35.102Z,99507.53
2022-12-13T20:38:36.305Z,99502.41
2022-12-13T20:43:37.551Z,99496.50
2022-12-13T20:48:38.731Z,99491.34
2022-12-13T20:53:40.545Z,99484.72
2022-12-13T20:58:44.813Z,99467.53
2022-12-13T21:03:45.955Z,99465.50
2022-12-13T21:08:54.609Z,99460.16
2022-12-13T21:13:55.979Z,99441.59
2022-12-13T21:18:57.231Z,99431.53
2022-12-13T21:23:58.462Z,99431.84
2022-12-13T21:28:59.619Z,99419.56
2022-12-13T21:34:00.816Z,99367.75
2022-12-13T21:39:01.979Z,99408.41
2022-12-13T21:44:03.173Z,99393.06
2022-12-13T21:49:04.336Z,99379.66
2022-12-13T21:54:05.581Z,99385.03
2022-12-13T21:59:15.842Z,99384.22
2022-12-13T22:04:17.052Z,99376.72
2022-12-13T22:09:18.234Z,99378.22
2022-12-13T22:14:19.603Z,99361.41
2022-12-13T22:19:20.797Z,99361.09
2022-12-13T22:24:21.943Z,99367.25
2022-12-13T22:29:23.134Z,99357.75
2022-12-13T22:34:24.279Z,99357.97
2022-12-13T22:39:25.848Z,99350.34
2022-12-13T22:44:27.303Z,99355.25
2022-12-13T22:49:28.446Z,99336.34
2022-12-13T22:54:29.611Z,99325.34
2022-12-13T22:59:30.755Z,99333.41
2022-12-13T23:04:32.084Z,99329.81
2022-12-13T23:09:33.329Z,99320.78
2022-12-13T23:14:34.526Z,99315.31
2022-12-13T23:19:51.582Z,99315.06
2022-12-13T23:24:54.849Z,99313.75
2022-12-13T23:29:56.299Z,99310.19
2022-12-13T23:34:57.491Z,99308.16
2022-12-13T23:39:58.653Z,99311.28
2022-12-13T23:44:59.875Z,99309.38
2022-12-13T23:50:01.068Z,99307.84
2022-12-13T23:55:02.285Z,99303.91
